createdAt,value
2019-04-22T00:01:57.860Z,13.04
2019-04-22T00:04:40.234Z,13.08
2019-04-22T00:07:29.180Z,13.19
2019-04-22T00:10:06.378Z,13.26
2019-04-22T00:12:42.096Z,13.37
2019-04-22T00:15:10.000Z,13.54
2019-04-22T00:18:25.187Z,13.49
2019-04-22T00:20:58.279Z,13.52
2019-04-22T00:23:33.345Z,13.61
2019-04-22T00:26:13.768Z,13.71
2019-04-22T00:28:43.998Z,13.96
2019-04-22T00:31:16.960Z,14.21
2019-04-22T00:33:52.928Z,14.34
2019-04-22T00:36:29.330Z,14.35
2019-04-22T00:39:07.114Z,14.38
2019-04-22T00:41:37.176Z,14.42
2019-04-22T00:44:13.817Z,14.56
2019-04-22T00:46:52.526Z,14.70
2019-04-22T00:52:03.292Z,14.97
2019-04-22T00:54:43.854Z,15.00
2019-04-22T00:57:12.314Z,15.02
2019-04-22T00:59:45.798Z,15.17
2019-04-22T01:02:24.550Z,15.49
2019-04-22T01:04:55.034Z,15.66
2019-04-22T01:07:24.873Z,15.74
2019-04-22T01:10:06.625Z,15.80
2019-04-22T01:12:39.592Z,16.12
2019-04-22T01:15:17.585Z,16.13
2019-04-22T01:17:45.439Z,16.10
2019-04-22T01:23:13.026Z,16.52
2019-04-22T01:25:46.235Z,16.75
2019-04-22T01:28:20.201Z,16.86
2019-04-22T01:30:51.712Z,16.91
2019-04-22T01:33:23.873Z,16.84
2019-04-22T01:36:15.072Z,16.82
2019-04-22T01:38:56.768Z,16.87
2019-04-22T01:41:35.327Z,17.06
2019-04-22T01:44:21.587Z,17.41
2019-04-22T01:46:36.910Z,17.69
2019-04-22T01:49:22.490Z,17.89
2019-04-22T01:52:05.086Z,17.99
2019-04-22T01:54:46.679Z,18.09
2019-04-22T01:57:22.661Z,17.96
2019-04-22T01:59:51.990Z,17.87
2019-04-22T02:02:40.001Z,18.19
2019-04-22T02:05:12.333Z,18.11
2019-04-22T02:07:42.488Z,18.18
2019-04-22T02:10:26.858Z,18.46
2019-04-22T02:12:55.430Z,18.80
2019-04-22T02:15:47.343Z,18.70
2019-04-22T02:18:10.726Z,19.09
2019-04-22T02:20:43.207Z,19.22
2019-04-22T02:26:34.247Z,19.00
2019-04-22T02:29:01.098Z,18.89
2019-04-22T02:36:34.018Z,19.11
2019-04-22T02:39:11.807Z,19.19
2019-04-22T02:42:09.510Z,19.38
2019-04-22T02:44:26.320Z,19.71
2019-04-22T02:47:14.096Z,19.95
2019-04-22T02:49:34.599Z,19.97
2019-04-22T03:00:09.704Z,20.13
2019-04-22T03:02:41.376Z,20.18
2019-04-22T03:05:08.852Z,19.95
2019-04-22T03:07:50.653Z,20.02
2019-04-22T03:10:23.908Z,20.26
2019-04-22T03:12:51.622Z,20.67
2019-04-22T03:15:20.008Z,20.85
2019-04-22T03:18:20.049Z,20.85
2019-04-22T03:20:42.856Z,20.97
2019-04-22T03:23:35.880Z,21.24
2019-04-22T03:28:51.111Z,20.86
2019-04-22T03:34:55.407Z,21.41
2019-04-22T03:42:07.137Z,22.02
2019-04-22T03:47:16.097Z,22.37
2019-04-22T03:50:14.428Z,22.71
2019-04-22T03:52:24.792Z,22.60
2019-04-22T03:55:16.064Z,22.60
2019-04-22T04:00:26.506Z,22.80
2019-04-22T04:03:07.784Z,23.07
2019-04-22T04:08:33.534Z,22.95
2019-04-22T04:16:04.672Z,22.87
2019-04-22T04:18:46.775Z,23.00
2019-04-22T04:21:30.033Z,23.05
2019-04-22T04:24:01.355Z,23.16
2019-04-22T04:26:45.559Z,23.13
2019-04-22T04:29:32.903Z,23.17
2019-04-22T04:32:09.847Z,23.34
2019-04-22T04:35:03.220Z,23.27
2019-04-22T04:37:38.751Z,23.23
2019-04-22T04:39:55.147Z,23.44
2019-04-22T04:42:35.216Z,23.78
2019-04-22T04:47:43.790Z,23.59
2019-04-22T04:50:09.798Z,23.97
2019-04-22T04:55:22.077Z,24.18
2019-04-22T04:58:10.133Z,24.25
2019-04-22T05:06:01.517Z,24.70
2019-04-22T05:08:52.114Z,24.78
2019-04-22T05:11:37.262Z,24.58
2019-04-22T05:14:06.024Z,24.21
2019-04-22T05:19:15.470Z,24.36
2019-04-22T05:21:53.436Z,24.29
2019-04-22T05:24:30.807Z,24.45
2019-04-22T05:27:05.362Z,24.87
2019-04-22T05:29:54.079Z,24.87
2019-04-22T05:32:09.230Z,24.79
2019-04-22T05:34:48.190Z,24.78
2019-04-22T05:37:20.758Z,25.04
2019-04-22T05:40:04.441Z,25.21
2019-04-22T05:42:23.666Z,25.03
2019-04-22T05:45:10.666Z,25.31
2019-04-22T05:47:44.387Z,25.28
2019-04-22T05:50:12.999Z,25.58
2019-04-22T05:52:55.366Z,25.54
2019-04-22T05:58:02.844Z,25.16
2019-04-22T06:01:05.731Z,25.35
2019-04-22T06:03:16.511Z,25.49
2019-04-22T06:05:47.922Z,25.20
2019-04-22T06:08:24.166Z,25.25
2019-04-22T06:11:04.116Z,25.16
2019-04-22T06:13:33.052Z,25.24
2019-04-22T06:16:14.640Z,25.52
2019-04-22T06:18:48.979Z,25.64
2019-04-22T06:21:28.080Z,25.67
2019-04-22T06:24:04.796Z,25.82
2019-04-22T06:26:45.829Z,25.98
2019-04-22T06:29:32.029Z,26.04
2019-04-22T06:34:27.624Z,25.89
2019-04-22T06:37:04.696Z,25.53
2019-04-22T06:42:07.934Z,25.39
2019-04-22T06:44:36.876Z,25.34
2019-04-22T06:47:25.132Z,25.45
2019-04-22T06:49:52.558Z,25.45
2019-04-22T06:55:03.934Z,25.33
2019-04-22T06:57:36.967Z,25.21
2019-04-22T07:00:11.850Z,24.93
2019-04-22T07:02:57.807Z,24.77
2019-04-22T07:05:23.560Z,24.80
2019-04-22T07:08:04.095Z,24.73
2019-04-22T07:10:35.002Z,24.76
2019-04-22T07:13:00.942Z,24.78
2019-04-22T07:15:50.593Z,24.71
2019-04-22T07:18:24.888Z,24.57
2019-04-22T07:23:27.117Z,24.44
2019-04-22T07:26:13.973Z,24.34
2019-04-22T07:28:29.131Z,24.27
2019-04-22T07:31:11.348Z,24.17
2019-04-22T07:33:51.798Z,24.30
2019-04-22T07:38:56.469Z,24.57
2019-04-22T07:41:31.847Z,24.53
2019-04-22T07:44:24.175Z,24.44
2019-04-22T07:46:54.326Z,24.17
2019-04-22T07:49:18.340Z,24.08
2019-04-22T07:51:50.271Z,24.11
2019-04-22T07:54:26.322Z,24.00
2019-04-22T07:57:08.958Z,24.18
2019-04-22T07:59:35.276Z,24.06
2019-04-22T08:02:16.177Z,24.15
2019-04-22T08:05:03.986Z,24.09
2019-04-22T08:07:24.176Z,24.16
2019-04-22T08:10:08.782Z,24.03
2019-04-22T08:12:39.078Z,23.85
2019-04-22T08:15:13.093Z,23.93
2019-04-22T08:17:55.093Z,23.99
2019-04-22T08:20:23.843Z,23.95
2019-04-22T08:23:00.400Z,23.84
2019-04-22T08:25:31.437Z,23.83
2019-04-22T08:28:10.239Z,23.80
2019-04-22T08:30:50.819Z,23.88
2019-04-22T08:33:21.749Z,23.93
2019-04-22T08:36:06.472Z,23.79
2019-04-22T08:38:48.747Z,23.76
2019-04-22T08:41:23.505Z,23.72
2019-04-22T08:43:57.477Z,23.64
2019-04-22T08:49:00.806Z,23.66
2019-04-22T08:51:36.019Z,23.62
2019-04-22T08:54:13.240Z,23.62
2019-04-22T08:56:56.845Z,23.50
2019-04-22T08:59:21.784Z,23.52
2019-04-22T09:02:10.147Z,23.48
2019-04-22T09:04:36.511Z,23.51
2019-04-22T09:07:21.150Z,23.46
2019-04-22T09:09:50.621Z,23.50
2019-04-22T09:12:23.859Z,23.44
2019-04-22T09:14:52.103Z,23.35
2019-04-22T09:17:51.416Z,23.34
2019-04-22T09:20:11.327Z,23.35
2019-04-22T09:22:41.127Z,23.30
2019-04-22T09:25:17.033Z,23.24
2019-04-22T09:27:51.243Z,23.15
2019-04-22T09:30:34.665Z,23.08
2019-04-22T09:33:11.065Z,23.06
2019-04-22T09:35:45.008Z,23.09
2019-04-22T09:38:34.681Z,23.12
2019-04-22T09:41:14.010Z,23.02
2019-04-22T09:43:40.660Z,22.94
2019-04-22T09:46:14.817Z,22.91
2019-04-22T09:48:59.051Z,22.66
2019-04-22T09:51:32.532Z,22.45
2019-04-22T09:54:20.165Z,22.50
2019-04-22T09:59:13.936Z,22.20
2019-04-22T10:02:08.448Z,22.28
2019-04-22T10:04:25.393Z,22.24
2019-04-22T10:07:01.004Z,22.16
2019-04-22T10:09:52.866Z,22.17
2019-04-22T10:12:19.309Z,22.09
2019-04-22T10:15:00.289Z,22.10
2019-04-22T10:17:58.271Z,22.21
2019-04-22T10:20:36.356Z,22.20
2019-04-22T10:23:12.838Z,22.27
2019-04-22T10:25:46.062Z,22.32
2019-04-22T10:30:59.834Z,22.44
2019-04-22T10:33:38.377Z,22.47
2019-04-22T10:35:55.326Z,22.41
2019-04-22T10:38:34.490Z,22.47
2019-04-22T10:41:10.212Z,22.40
2019-04-22T10:43:45.272Z,22.50
2019-04-22T10:46:22.198Z,22.59
2019-04-22T10:48:58.047Z,22.57
2019-04-22T10:51:32.741Z,22.60
2019-04-22T10:54:09.619Z,22.57
2019-04-22T10:56:45.231Z,22.56
2019-04-22T10:59:20.485Z,22.59
2019-04-22T11:01:55.595Z,22.56
2019-04-22T11:04:32.272Z,22.49
2019-04-22T11:07:10.497Z,22.41
2019-04-22T11:09:51.796Z,22.41
2019-04-22T11:12:21.479Z,22.36
2019-04-22T11:14:53.752Z,22.34
2019-04-22T11:17:31.546Z,22.39
2019-04-22T11:20:06.222Z,22.45
2019-04-22T11:22:42.692Z,22.52
2019-04-22T11:25:18.042Z,22.50
2019-04-22T11:27:55.794Z,22.39
2019-04-22T11:30:32.253Z,22.33
2019-04-22T11:33:06.788Z,22.42
2019-04-22T11:35:41.702Z,22.44
2019-04-22T11:38:17.059Z,22.40
2019-04-22T11:40:54.391Z,22.35
2019-04-22T11:43:28.643Z,22.34
2019-04-22T11:46:03.238Z,22.30
2019-04-22T11:48:40.501Z,22.26
2019-04-22T11:51:15.949Z,22.23
2019-04-22T11:53:49.873Z,22.24
2019-04-22T11:56:27.132Z,22.27
2019-04-22T11:59:02.815Z,22.25
2019-04-22T12:01:39.517Z,22.16
2019-04-22T12:04:14.279Z,22.17
2019-04-22T12:06:51.621Z,22.15
2019-04-22T12:09:27.802Z,22.00
2019-04-22T12:12:14.040Z,22.05
2019-04-22T12:14:52.246Z,21.98
2019-04-22T12:17:31.879Z,21.97
2019-04-22T12:20:14.069Z,21.92
2019-04-22T12:22:49.142Z,21.89
2019-04-22T12:25:34.684Z,21.84
2019-04-22T12:28:08.965Z,21.78
2019-04-22T12:30:48.386Z,21.64
2019-04-22T12:33:25.267Z,21.60
2019-04-22T12:36:06.405Z,21.51
2019-04-22T12:38:45.182Z,21.46
2019-04-22T12:41:21.961Z,21.38
2019-04-22T12:43:58.992Z,21.27
2019-04-22T12:49:12.144Z,21.08
2019-04-22T12:51:49.323Z,20.76
2019-04-22T12:54:24.783Z,20.58
2019-04-22T12:57:01.737Z,20.21
2019-04-22T12:59:39.780Z,19.76
2019-04-22T13:02:15.477Z,19.97
2019-04-22T13:04:52.308Z,19.38
2019-04-22T13:07:29.634Z,19.35
2019-04-22T13:10:05.963Z,19.34
2019-04-22T13:12:40.961Z,19.31
2019-04-22T13:15:37.027Z,19.36
2019-04-22T13:18:26.991Z,19.38
2019-04-22T13:20:51.054Z,19.42
2019-04-22T13:23:29.646Z,19.32
2019-04-22T13:26:12.948Z,19.34
2019-04-22T13:28:49.173Z,19.38
2019-04-22T13:31:28.864Z,19.50
2019-04-22T13:34:05.660Z,19.54
2019-04-22T13:36:43.548Z,19.45
2019-04-22T13:39:18.795Z,19.47
2019-04-22T13:41:59.945Z,19.49
2019-04-22T13:44:33.598Z,19.37
2019-04-22T13:47:21.481Z,19.48
2019-04-22T13:50:16.703Z,19.37
2019-04-22T13:52:53.598Z,19.54
2019-04-22T13:58:00.769Z,19.71
2019-04-22T14:00:27.071Z,19.69
2019-04-22T14:03:04.626Z,19.69
2019-04-22T14:05:42.528Z,19.76
2019-04-22T14:08:18.052Z,19.69
2019-04-22T14:10:52.504Z,19.72
2019-04-22T14:13:27.665Z,19.62
2019-04-22T14:16:04.576Z,19.60
2019-04-22T14:18:41.081Z,19.79
2019-04-22T14:21:18.804Z,19.74
2019-04-22T14:23:53.051Z,19.78
2019-04-22T14:26:47.936Z,19.71
2019-04-22T14:29:06.039Z,19.68
2019-04-22T14:32:04.283Z,19.77
2019-04-22T14:34:28.227Z,19.97
2019-04-22T14:37:12.128Z,19.89
2019-04-22T14:39:48.140Z,19.78
2019-04-22T14:42:44.043Z,19.74
2019-04-22T14:45:21.949Z,19.76
2019-04-22T14:48:01.493Z,19.66
2019-04-22T14:50:33.609Z,19.93
2019-04-22T14:53:05.463Z,19.92
2019-04-22T14:55:23.887Z,20.01
2019-04-22T14:57:56.903Z,19.96
2019-04-22T15:00:33.774Z,20.02
2019-04-22T15:03:08.235Z,19.99
2019-04-22T15:05:42.118Z,19.86
2019-04-22T15:08:17.138Z,20.09
2019-04-22T15:10:51.730Z,20.05
2019-04-22T15:13:31.587Z,19.94
2019-04-22T15:16:05.965Z,20.08
2019-04-22T15:18:39.829Z,19.96
2019-04-22T15:21:14.495Z,20.06
2019-04-22T15:23:50.770Z,20.10
2019-04-22T15:26:28.553Z,20.01
2019-04-22T15:29:03.108Z,20.18
2019-04-22T15:31:37.451Z,20.18
2019-04-22T15:34:12.307Z,20.11
2019-04-22T15:36:46.204Z,20.05
2019-04-22T15:39:20.791Z,20.10
2019-04-22T15:42:01.748Z,20.00
2019-04-22T15:44:30.404Z,19.93
2019-04-22T15:47:06.864Z,19.91
2019-04-22T15:49:42.163Z,19.71
2019-04-22T15:52:16.657Z,19.68
2019-04-22T15:54:53.555Z,19.74
2019-04-22T15:57:26.787Z,19.68
2019-04-22T16:00:17.623Z,19.57
2019-04-22T16:02:37.431Z,19.63
2019-04-22T16:05:12.768Z,19.66
2019-04-22T16:07:46.365Z,19.70
2019-04-22T16:10:20.120Z,19.65
2019-04-22T16:13:03.514Z,19.59
2019-04-22T16:15:30.639Z,19.63
2019-04-22T16:18:05.330Z,19.48
2019-04-22T16:20:40.409Z,19.47
2019-04-22T16:23:15.285Z,19.47
2019-04-22T16:25:49.477Z,19.53
2019-04-22T16:28:25.301Z,19.52
2019-04-22T16:30:59.680Z,19.55
2019-04-22T16:33:36.468Z,19.57
2019-04-22T16:36:09.180Z,19.57
2019-04-22T16:38:44.747Z,19.59
2019-04-22T16:41:18.834Z,19.47
2019-04-22T16:43:54.217Z,19.44
2019-04-22T16:46:28.024Z,19.35
2019-04-22T16:49:01.705Z,19.34
2019-04-22T16:51:36.175Z,19.31
2019-04-22T16:54:11.670Z,19.31
2019-04-22T16:56:45.755Z,19.16
2019-04-22T16:59:19.501Z,19.18
2019-04-22T17:01:54.452Z,19.17
2019-04-22T17:04:28.349Z,19.24
2019-04-22T17:07:03.597Z,19.24
2019-04-22T17:09:37.530Z,19.22
2019-04-22T17:12:12.013Z,19.18
2019-04-22T17:14:52.701Z,19.21
2019-04-22T17:17:22.098Z,19.23
2019-04-22T17:19:57.539Z,19.19
2019-04-22T17:22:33.561Z,19.14
2019-04-22T17:25:08.693Z,19.11
2019-04-22T17:27:43.471Z,19.00
2019-04-22T17:30:17.750Z,18.99
2019-04-22T17:32:52.479Z,19.00
2019-04-22T17:35:26.375Z,18.93
2019-04-22T17:38:08.873Z,18.97
2019-04-22T17:40:52.248Z,18.96
2019-04-22T17:43:44.091Z,18.94
2019-04-22T17:46:07.296Z,18.99
2019-04-22T17:48:40.624Z,19.02
2019-04-22T17:51:22.940Z,18.94
2019-04-22T17:53:55.978Z,18.85
2019-04-22T17:56:27.663Z,18.85
2019-04-22T17:59:02.754Z,18.84
2019-04-22T18:01:35.594Z,18.85
2019-04-22T18:03:55.532Z,18.64
2019-04-22T18:06:54.801Z,18.56
2019-04-22T18:09:27.702Z,18.53
2019-04-22T18:12:05.407Z,18.52
2019-04-22T18:14:44.971Z,18.46
2019-04-22T18:17:11.381Z,18.48
2019-04-22T18:19:39.648Z,18.51
2019-04-22T18:22:14.034Z,18.46
2019-04-22T18:24:50.131Z,18.47
2019-04-22T18:30:02.354Z,18.33
2019-04-22T18:32:42.518Z,18.27
2019-04-22T18:35:14.095Z,18.31
2019-04-22T18:37:54.786Z,18.30
2019-04-22T18:40:30.986Z,18.36
2019-04-22T18:43:04.375Z,18.46
2019-04-22T18:48:06.264Z,18.51
2019-04-22T18:51:00.171Z,18.47
2019-04-22T18:53:27.347Z,18.40
2019-04-22T18:55:56.948Z,18.40
2019-04-22T18:58:32.250Z,18.41
2019-04-22T19:00:52.507Z,18.37
2019-04-22T19:03:29.912Z,18.35
2019-04-22T19:06:30.633Z,18.42
2019-04-22T19:08:55.499Z,18.44
2019-04-22T19:11:35.456Z,18.41
2019-04-22T19:14:07.567Z,18.43
2019-04-22T19:16:39.847Z,18.34
2019-04-22T19:19:33.301Z,18.29
2019-04-22T19:21:53.633Z,18.30
2019-04-22T19:24:22.928Z,18.28
2019-04-22T19:27:02.013Z,18.23
2019-04-22T19:29:39.221Z,18.20
2019-04-22T19:32:08.372Z,18.18
2019-04-22T19:34:44.362Z,18.18
2019-04-22T19:37:17.386Z,18.13
2019-04-22T19:40:03.489Z,18.13
2019-04-22T19:42:36.672Z,18.17
2019-04-22T19:45:05.855Z,18.17
2019-04-22T19:47:41.863Z,18.17
2019-04-22T19:50:19.199Z,18.12
2019-04-22T19:52:50.299Z,18.16
2019-04-22T19:55:32.564Z,18.11
2019-04-22T19:57:59.834Z,18.12
2019-04-22T20:00:34.015Z,18.07
2019-04-22T20:03:16.081Z,18.09
2019-04-22T20:05:50.889Z,18.04
2019-04-22T20:08:21.317Z,18.01
2019-04-22T20:10:52.287Z,18.00
2019-04-22T20:13:37.250Z,17.93
2019-04-22T20:15:57.505Z,17.89
2019-04-22T20:18:50.146Z,17.84
2019-04-22T20:21:19.409Z,17.73
2019-04-22T20:23:41.838Z,17.69
2019-04-22T20:26:17.887Z,17.74
2019-04-22T20:28:58.942Z,17.75
2019-04-22T20:31:43.062Z,17.74
2019-04-22T20:34:17.343Z,17.72
2019-04-22T20:37:01.790Z,17.70
2019-04-22T20:39:27.079Z,17.63
2019-04-22T20:41:57.735Z,17.61
2019-04-22T20:44:35.302Z,17.55
2019-04-22T20:47:07.276Z,17.55
2019-04-22T20:49:44.482Z,17.52
2019-04-22T20:54:49.071Z,17.41
2019-04-22T20:57:23.972Z,17.41
2019-04-22T20:59:55.930Z,17.36
2019-04-22T21:02:27.718Z,17.35
2019-04-22T21:04:59.054Z,17.40
2019-04-22T21:07:38.526Z,17.38
2019-04-22T21:10:19.919Z,17.28
2019-04-22T21:12:50.942Z,17.27
2019-04-22T21:15:37.405Z,17.25
2019-04-22T21:18:08.382Z,17.20
2019-04-22T21:20:48.184Z,17.30
2019-04-22T21:23:17.821Z,17.30
2019-04-22T21:25:43.045Z,17.29
2019-04-22T21:28:28.891Z,17.27
2019-04-22T21:30:57.174Z,17.27
2019-04-22T21:33:37.886Z,17.22
2019-04-22T21:36:20.147Z,17.27
2019-04-22T21:38:43.477Z,17.11
2019-04-22T21:41:20.537Z,17.22
2019-04-22T21:43:58.221Z,17.21
2019-04-22T21:46:37.035Z,17.18
2019-04-22T21:49:16.612Z,17.08
2019-04-22T21:51:49.597Z,17.10
2019-04-22T21:54:21.636Z,17.14
2019-04-22T21:57:07.425Z,17.11
2019-04-22T21:59:30.144Z,17.22
2019-04-22T22:02:04.421Z,17.20
2019-04-22T22:04:36.585Z,17.15
2019-04-22T22:06:59.650Z,17.13
2019-04-22T22:09:50.718Z,17.08
2019-04-22T22:12:24.648Z,17.18
2019-04-22T22:15:00.870Z,17.08
2019-04-22T22:17:31.119Z,16.98
2019-04-22T22:20:07.478Z,16.98
2019-04-22T22:25:21.261Z,17.12
2019-04-22T22:27:49.461Z,17.13
2019-04-22T22:30:51.260Z,17.05
2019-04-22T22:33:05.717Z,17.06
2019-04-22T22:35:40.872Z,17.16
2019-04-22T22:38:19.166Z,17.17
2019-04-22T22:40:34.486Z,17.29
2019-04-22T22:43:18.953Z,17.12
2019-04-22T22:45:48.897Z,17.08
2019-04-22T22:48:41.451Z,17.11
2019-04-22T22:51:09.631Z,17.18
2019-04-22T22:53:57.050Z,17.17
2019-04-22T22:56:27.399Z,17.17
2019-04-22T22:59:01.773Z,17.18
2019-04-22T23:01:36.141Z,17.21
2019-04-22T23:04:12.864Z,17.24
2019-04-22T23:06:44.414Z,17.40
2019-04-22T23:09:19.209Z,17.35
2019-04-22T23:12:06.041Z,17.44
2019-04-22T23:14:34.505Z,17.50
2019-04-22T23:16:51.401Z,17.50
2019-04-22T23:19:19.909Z,17.61
2019-04-22T23:22:01.118Z,17.68
2019-04-22T23:24:43.747Z,17.71
2019-04-22T23:27:24.562Z,17.67
2019-04-22T23:29:49.980Z,17.78
2019-04-22T23:32:25.433Z,17.95
2019-04-22T23:35:10.118Z,18.01
2019-04-22T23:37:47.626Z,18.02
2019-04-22T23:40:32.609Z,18.00
2019-04-22T23:43:00.090Z,17.96
2019-04-22T23:45:33.254Z,18.03
2019-04-22T23:48:03.301Z,18.20
2019-04-22T23:50:45.412Z,18.22
2019-04-22T23:53:17.919Z,18.20
2019-04-22T23:55:53.168Z,18.20
2019-04-22T23:58:44.813Z,18.15
